KHVR/HVR METAR and TAF weather

Enter ICAO airport designator
Station Type Date Time Source
KHVR METAR 2019/12/13 16:53 UTC NOAA

KHVR 131653Z AUTO 36006KT 5SM HZ OVC011 M10/M13 A3001 RMK AO2 SLP209 T11001128


Station Type Date Time Source
KHVR Decoded METAR 2019/12/13 16:53 UTC NOAA

HAVRE CITY-COUNTY AIRPORT, MT, United States (KHVR) 48-33N 109-46W 787M
Dec 13, 2019 - 11:53 AM EST / 2019.12.13 1653 UTC
Wind: from the N (360 degrees) at 7 MPH (6 KT):0
Visibility: 5 mile(s):0
Sky conditions: overcast
Weather: haze
Temperature: 14.0 F (-10.0 C)
Windchill: 3 F (-16 C):1
Dew Point: 9.0 F (-12.8 C)
Relative Humidity: 79%
Pressure (altimeter): 30.01 in. Hg (1016 hPa)
ob: KHVR 131653Z AUTO 36006KT 5SM HZ OVC011 M10/M13 A3001 RMK AO2 SLP209 T11001128
cycle: 17

Station Type Date Time Source
KHVR TAF 2019/12/13 14:28 UTC NOAA

TAF
AMD KHVR 131426Z 1314/1412 VRB06KT 6SM BR BKN013
FM131700 02007KT 6SM BR SCT007 BKN025
FM140000 VRB05KT 6SM BR SCT007 OVC015 PROB30 1400/1406 2SM -SN BR BKN007
FM141100 VRB05KT 5SM BR SCT007 BKN008

Example: see airport list